createdAt,value
2023-04-18T00:01:59.704Z,22.70
2023-04-18T00:04:27.069Z,26.13
2023-04-18T00:06:54.270Z,22.53
2023-04-18T00:09:21.300Z,24.97
2023-04-18T00:11:48.496Z,24.13
2023-04-18T00:14:15.701Z,23.13
2023-04-18T00:20:26.832Z,21.83
2023-04-18T00:22:55.042Z,22.40
2023-04-18T00:25:22.206Z,21.47
2023-04-18T00:27:49.212Z,20.57
2023-04-18T00:30:16.376Z,21.83
2023-04-18T00:32:43.451Z,22.33
2023-04-18T00:35:10.521Z,20.33
2023-04-18T00:37:37.560Z,20.40
2023-04-18T00:40:05.731Z,21.37
2023-04-18T00:42:34.068Z,23.27
2023-04-18T00:45:01.620Z,21.47
2023-04-18T00:47:28.756Z,19.67
2023-04-18T00:49:56.756Z,20.67
2023-04-18T00:52:27.282Z,22.80
2023-04-18T00:54:55.581Z,21.30
2023-04-18T00:57:22.764Z,20.07
2023-04-18T00:59:50.392Z,21.97
2023-04-18T01:02:17.653Z,19.07
2023-04-18T01:04:44.989Z,21.27
2023-04-18T01:07:12.286Z,23.23
2023-04-18T01:09:40.257Z,19.23
2023-04-18T01:12:07.270Z,21.57
2023-04-18T01:14:34.287Z,24.47
2023-04-18T01:17:01.656Z,21.23
2023-04-18T01:19:28.771Z,23.70
2023-04-18T01:22:13.490Z,19.33
2023-04-18T01:24:41.087Z,19.27
2023-04-18T01:27:13.602Z,25.10
2023-04-18T01:29:41.024Z,20.60
2023-04-18T01:32:08.254Z,20.30
2023-04-18T01:34:35.337Z,25.03
2023-04-18T01:37:02.346Z,22.30
2023-04-18T01:39:29.407Z,20.47
2023-04-18T01:41:56.408Z,21.20
2023-04-18T01:44:23.410Z,23.10
2023-04-18T01:46:50.598Z,18.43
2023-04-18T01:49:17.603Z,20.70
2023-04-18T01:51:44.628Z,20.30
2023-04-18T01:54:12.010Z,22.00
2023-04-18T01:56:39.202Z,22.37
2023-04-18T01:59:06.233Z,23.30
2023-04-18T02:01:33.209Z,25.10
2023-04-18T02:04:00.320Z,20.50
2023-04-18T02:06:27.373Z,21.30
2023-04-18T02:08:54.438Z,19.50
2023-04-18T02:11:22.200Z,20.40
2023-04-18T02:13:49.197Z,23.60
2023-04-18T02:16:16.407Z,23.77
2023-04-18T02:18:44.173Z,24.63
2023-04-18T02:21:11.952Z,24.07
2023-04-18T02:23:39.028Z,20.50
2023-04-18T02:26:06.637Z,26.20
2023-04-18T02:28:33.716Z,24.97
2023-04-18T02:31:01.109Z,24.63
2023-04-18T02:33:28.293Z,21.90
2023-04-18T02:35:55.288Z,22.33
2023-04-18T02:38:22.260Z,20.20
2023-04-18T02:40:49.275Z,19.60
2023-04-18T02:43:16.234Z,24.07
2023-04-18T02:45:43.275Z,21.17
2023-04-18T02:48:10.301Z,23.70
2023-04-18T02:50:37.343Z,22.77
2023-04-18T02:53:04.451Z,20.07
2023-04-18T02:55:32.156Z,24.00
2023-04-18T02:57:59.201Z,25.93
2023-04-18T03:00:26.960Z,20.03
2023-04-18T03:02:54.174Z,23.83
2023-04-18T03:05:22.270Z,22.73
2023-04-18T03:07:49.276Z,22.83
2023-04-18T03:10:16.536Z,26.53
2023-04-18T03:12:43.554Z,25.07
2023-04-18T03:15:11.453Z,28.57
2023-04-18T03:17:39.269Z,26.77
2023-04-18T03:20:08.064Z,24.03
2023-04-18T03:22:35.104Z,22.37
2023-04-18T03:25:02.138Z,23.93
2023-04-18T03:27:29.133Z,25.50
2023-04-18T03:29:56.136Z,24.63
2023-04-18T03:32:23.175Z,24.67
2023-04-18T03:34:51.776Z,23.93
2023-04-18T03:37:18.791Z,23.33
2023-04-18T03:39:45.802Z,19.53
2023-04-18T03:42:12.807Z,23.13
2023-04-18T03:44:39.855Z,22.17
2023-04-18T03:47:06.873Z,20.90
2023-04-18T03:49:33.864Z,25.77
2023-04-18T03:52:00.953Z,23.87
2023-04-18T03:54:28.003Z,26.97
2023-04-18T03:56:55.780Z,24.63
2023-04-18T03:59:22.828Z,23.23
2023-04-18T04:01:49.825Z,31.87
2023-04-18T04:04:17.382Z,26.03
2023-04-18T04:06:44.884Z,22.97
2023-04-18T04:09:11.878Z,26.70
2023-04-18T04:11:39.643Z,26.47
2023-04-18T04:14:06.659Z,21.33
2023-04-18T04:16:33.757Z,20.73
2023-04-18T04:19:00.908Z,22.30
2023-04-18T04:21:27.900Z,26.37
2023-04-18T04:23:54.888Z,24.23
2023-04-18T04:26:23.307Z,21.93
2023-04-18T04:28:51.678Z,23.33
2023-04-18T04:31:18.804Z,22.90
2023-04-18T04:33:46.694Z,25.60
2023-04-18T04:36:16.710Z,22.20
2023-04-18T04:38:45.684Z,20.50
2023-04-18T04:41:12.872Z,25.47
2023-04-18T04:43:41.352Z,21.20
2023-04-18T04:46:08.836Z,22.90
2023-04-18T04:48:35.843Z,23.60
2023-04-18T04:51:02.840Z,22.33
2023-04-18T04:53:33.187Z,21.47
2023-04-18T04:56:00.342Z,22.93
2023-04-18T04:58:28.549Z,25.47
2023-04-18T05:00:55.857Z,22.30
2023-04-18T05:03:23.418Z,22.90
2023-04-18T05:05:50.616Z,20.87
2023-04-18T05:08:17.650Z,24.30
2023-04-18T05:10:46.004Z,23.70
2023-04-18T05:13:13.010Z,24.40
2023-04-18T05:15:40.508Z,24.80
2023-04-18T05:18:07.548Z,25.80
2023-04-18T05:20:34.655Z,22.17
2023-04-18T05:23:01.647Z,20.77
2023-04-18T05:25:29.908Z,22.20
2023-04-18T05:27:57.135Z,22.20
2023-04-18T05:30:24.232Z,22.70
2023-04-18T05:32:51.260Z,24.13
2023-04-18T05:35:18.361Z,24.60
2023-04-18T05:37:45.371Z,23.20
2023-04-18T05:40:13.542Z,25.17
2023-04-18T05:42:41.010Z,19.77
2023-04-18T05:45:08.786Z,22.43
2023-04-18T05:47:36.030Z,22.43
2023-04-18T05:50:03.171Z,23.53
2023-04-18T05:52:30.271Z,28.77
2023-04-18T05:54:57.280Z,26.50
2023-04-18T05:57:24.301Z,24.87
2023-04-18T05:59:51.305Z,22.50
2023-04-18T06:02:18.432Z,20.90
2023-04-18T06:04:46.273Z,20.30
2023-04-18T06:07:13.424Z,22.70
2023-04-18T06:09:40.462Z,22.33
2023-04-18T06:12:07.485Z,20.83
2023-04-18T06:14:34.488Z,22.07
2023-04-18T06:17:01.514Z,24.70
2023-04-18T06:19:28.534Z,26.03
2023-04-18T06:21:55.576Z,24.03
2023-04-18T06:24:23.135Z,23.03
2023-04-18T06:26:50.204Z,33.30
2023-04-18T06:29:18.258Z,22.63
2023-04-18T06:31:46.771Z,21.10
2023-04-18T06:34:14.206Z,23.47
2023-04-18T06:36:41.382Z,20.47
2023-04-18T06:39:08.767Z,22.13
2023-04-18T06:41:35.790Z,20.77
2023-04-18T06:44:04.479Z,21.70
2023-04-18T06:46:33.055Z,22.92
2023-04-18T06:49:00.511Z,25.17
2023-04-18T06:51:27.678Z,23.77
2023-04-18T06:53:54.711Z,26.87
2023-04-18T06:56:22.852Z,22.30
2023-04-18T06:58:50.230Z,25.17
2023-04-18T07:01:17.308Z,26.73
2023-04-18T07:03:44.541Z,25.90
2023-04-18T07:06:11.692Z,27.43
2023-04-18T07:08:38.820Z,25.43
2023-04-18T07:11:06.761Z,22.53
2023-04-18T07:13:33.821Z,21.10
2023-04-18T07:16:01.644Z,23.27
2023-04-18T07:18:37.574Z,24.93
2023-04-18T07:21:08.872Z,26.13
2023-04-18T07:23:36.606Z,25.23
2023-04-18T07:26:05.782Z,20.80
2023-04-18T07:28:33.462Z,24.70
2023-04-18T07:31:01.315Z,24.33
2023-04-18T07:33:31.761Z,21.50
2023-04-18T07:35:59.028Z,26.87
2023-04-18T07:38:26.965Z,23.33
2023-04-18T07:41:02.344Z,22.67
2023-04-18T07:43:29.338Z,20.23
2023-04-18T07:45:56.541Z,28.73
2023-04-18T07:48:25.169Z,29.17
2023-04-18T07:50:52.453Z,28.27
2023-04-18T07:53:19.846Z,21.80
2023-04-18T07:55:46.942Z,23.30
2023-04-18T07:58:14.200Z,25.88
2023-04-18T08:00:42.754Z,24.90
2023-04-18T08:03:11.132Z,20.00
2023-04-18T08:05:42.909Z,21.25
2023-04-18T08:08:12.011Z,19.38
2023-04-18T08:10:39.271Z,20.65
2023-04-18T08:13:07.031Z,19.85
2023-04-18T08:15:34.143Z,25.45
2023-04-18T08:18:01.983Z,20.45
2023-04-18T08:20:29.494Z,19.88
2023-04-18T08:23:06.793Z,15.63
2023-04-18T08:25:36.559Z,20.05
2023-04-18T08:28:04.081Z,15.73
2023-04-18T08:30:31.670Z,14.85
2023-04-18T08:33:00.587Z,18.13
2023-04-18T08:35:27.678Z,23.65
2023-04-18T08:37:55.861Z,18.83
2023-04-18T08:40:23.048Z,17.60
2023-04-18T08:42:52.950Z,16.75
2023-04-18T08:45:20.937Z,18.23
2023-04-18T08:47:48.098Z,18.77
2023-04-18T08:50:15.194Z,17.15
2023-04-18T08:52:48.809Z,19.90
2023-04-18T08:55:16.521Z,16.05
2023-04-18T08:57:44.664Z,16.70
2023-04-18T09:00:12.553Z,17.52
2023-04-18T09:02:45.050Z,18.58
2023-04-18T09:05:15.085Z,17.77
2023-04-18T09:07:42.762Z,16.90
2023-04-18T09:10:10.524Z,20.83
2023-04-18T09:12:52.401Z,18.73
2023-04-18T09:15:24.224Z,15.30
2023-04-18T09:17:54.063Z,16.40
2023-04-18T09:20:43.755Z,17.70
2023-04-18T09:23:16.270Z,17.08
2023-04-18T09:25:48.162Z,19.75
2023-04-18T09:28:33.282Z,18.02
2023-04-18T09:31:12.963Z,15.85
2023-04-18T09:33:44.754Z,12.82
2023-04-18T09:36:27.371Z,18.13
2023-04-18T09:38:57.084Z,15.55
2023-04-18T09:41:24.624Z,20.27
2023-04-18T09:44:15.010Z,14.35
2023-04-18T09:46:45.230Z,18.48
2023-04-18T09:49:14.074Z,20.05
2023-04-18T09:51:43.222Z,25.25
2023-04-18T09:54:15.134Z,19.17
2023-04-18T09:56:45.599Z,21.13
2023-04-18T09:59:17.749Z,18.60
2023-04-18T10:01:48.632Z,16.30
2023-04-18T10:04:17.764Z,19.85
2023-04-18T10:06:46.856Z,15.80
2023-04-18T10:09:16.398Z,14.40
2023-04-18T10:11:44.492Z,17.95
2023-04-18T10:14:15.538Z,18.52
2023-04-18T10:16:45.577Z,18.52
2023-04-18T10:19:28.456Z,16.35
2023-04-18T10:22:00.389Z,22.02
2023-04-18T10:24:45.904Z,14.57
2023-04-18T10:27:13.067Z,20.08
2023-04-18T10:29:53.452Z,15.48
2023-04-18T10:32:23.581Z,16.23
2023-04-18T10:34:53.513Z,19.60
2023-04-18T10:37:20.692Z,15.18
2023-04-18T10:39:56.263Z,14.18
2023-04-18T10:42:48.096Z,15.05
2023-04-18T10:45:18.819Z,16.25
2023-04-18T10:47:46.085Z,15.35
2023-04-18T10:50:13.696Z,12.45
2023-04-18T10:52:41.757Z,14.15
2023-04-18T10:55:16.735Z,13.43
2023-04-18T10:57:49.270Z,21.13
2023-04-18T11:00:21.784Z,21.05
2023-04-18T11:02:56.549Z,20.60
2023-04-18T11:05:27.753Z,13.07
2023-04-18T11:07:55.504Z,15.82
2023-04-18T11:10:25.686Z,17.15
2023-04-18T11:12:56.232Z,15.93
2023-04-18T11:15:25.448Z,16.33
2023-04-18T11:17:58.812Z,15.80
2023-04-18T11:20:26.659Z,13.60
2023-04-18T11:22:59.906Z,15.93
2023-04-18T11:25:34.492Z,13.35
2023-04-18T11:28:04.641Z,21.48
2023-04-18T11:30:42.299Z,14.55
2023-04-18T11:33:11.781Z,16.50
2023-04-18T11:35:43.424Z,14.27
2023-04-18T11:38:16.033Z,16.85
2023-04-18T11:40:50.441Z,12.02
2023-04-18T11:43:25.642Z,12.93
2023-04-18T11:46:02.143Z,15.93
2023-04-18T11:48:45.453Z,13.88
2023-04-18T11:51:34.314Z,12.85
2023-04-18T11:54:01.555Z,15.93
2023-04-18T11:56:28.558Z,12.35
2023-04-18T11:58:56.400Z,13.02
2023-04-18T12:01:25.694Z,18.08
2023-04-18T12:04:02.859Z,15.50
2023-04-18T12:06:49.989Z,13.40
2023-04-18T12:09:18.267Z,16.85
2023-04-18T12:12:01.111Z,22.05
2023-04-18T12:14:28.726Z,15.18
2023-04-18T12:16:56.293Z,11.45
2023-04-18T12:19:28.301Z,10.85
2023-04-18T12:22:05.325Z,13.95
2023-04-18T12:24:32.998Z,11.75
2023-04-18T12:27:00.161Z,15.00
2023-04-18T12:29:29.225Z,12.90
2023-04-18T12:31:56.709Z,9.48
2023-04-18T12:34:23.974Z,11.18
2023-04-18T12:36:51.114Z,10.73
2023-04-18T12:39:18.056Z,12.02
2023-04-18T12:41:45.346Z,11.38
2023-04-18T12:44:13.321Z,9.98
2023-04-18T12:46:40.602Z,10.65
2023-04-18T12:49:08.290Z,12.18
2023-04-18T12:51:35.277Z,12.32
2023-04-18T12:54:02.390Z,15.75
2023-04-18T12:56:29.439Z,10.55
2023-04-18T12:58:56.487Z,11.43
2023-04-18T13:01:23.496Z,8.85
2023-04-18T13:03:59.855Z,11.25
2023-04-18T13:06:31.595Z,10.13
2023-04-18T13:08:59.050Z,9.55
2023-04-18T13:11:28.646Z,13.32
2023-04-18T13:13:55.864Z,11.85
2023-04-18T13:16:22.949Z,16.98
2023-04-18T13:18:49.986Z,8.02
2023-04-18T13:21:17.178Z,11.73
2023-04-18T13:23:44.281Z,13.77
2023-04-18T13:26:11.262Z,7.50
2023-04-18T13:28:38.358Z,11.60
2023-04-18T13:31:06.072Z,9.70
2023-04-18T13:33:33.056Z,9.27
2023-04-18T13:36:00.055Z,8.57
2023-04-18T13:38:28.056Z,9.50
2023-04-18T13:41:08.555Z,10.10
2023-04-18T13:43:38.219Z,15.23
2023-04-18T13:46:05.452Z,9.10
2023-04-18T13:48:32.494Z,8.85
2023-04-18T13:50:59.469Z,12.35
2023-04-18T13:53:27.212Z,10.23
2023-04-18T13:55:54.960Z,8.05
2023-04-18T13:58:21.994Z,8.55
2023-04-18T14:00:48.998Z,8.80
2023-04-18T14:03:16.313Z,11.32
2023-04-18T14:05:43.407Z,8.50
2023-04-18T14:08:10.485Z,6.60
2023-04-18T14:10:37.615Z,6.47
2023-04-18T14:13:04.589Z,7.32
2023-04-18T14:15:33.292Z,7.90
2023-04-18T14:18:01.177Z,8.50
2023-04-18T14:20:34.328Z,8.45
2023-04-18T14:23:02.091Z,7.10
2023-04-18T14:25:30.272Z,10.60
2023-04-18T14:28:11.018Z,9.90
2023-04-18T14:30:39.549Z,8.68
2023-04-18T14:33:08.734Z,8.02
2023-04-18T14:35:36.085Z,9.32
2023-04-18T14:38:03.291Z,8.40
2023-04-18T14:40:32.558Z,6.22
2023-04-18T14:43:00.034Z,7.32
2023-04-18T14:45:27.083Z,6.55
2023-04-18T14:47:55.815Z,9.60
2023-04-18T14:50:22.999Z,8.18
2023-04-18T14:52:51.490Z,10.00
2023-04-18T14:55:21.820Z,7.25
2023-04-18T14:57:48.862Z,6.47
2023-04-18T15:00:16.322Z,6.20
2023-04-18T15:02:43.644Z,4.45
2023-04-18T15:05:12.442Z,6.78
2023-04-18T15:07:40.819Z,6.43
2023-04-18T15:10:08.745Z,5.70
2023-04-18T15:12:36.038Z,6.20
2023-04-18T15:15:03.072Z,7.38
2023-04-18T15:17:30.153Z,5.30
2023-04-18T15:19:59.110Z,9.00
2023-04-18T15:22:26.084Z,5.68
2023-04-18T15:24:53.077Z,4.65
2023-04-18T15:27:20.066Z,5.32
2023-04-18T15:29:47.087Z,8.30
2023-04-18T15:32:14.439Z,5.85
2023-04-18T15:34:41.608Z,6.05
2023-04-18T15:37:09.382Z,7.50
2023-04-18T15:39:36.856Z,6.43
2023-04-18T15:42:03.940Z,8.43
2023-04-18T15:44:31.116Z,6.28
2023-04-18T15:47:00.520Z,9.90
2023-04-18T15:49:27.867Z,6.97
2023-04-18T15:51:56.647Z,12.38
2023-04-18T15:54:23.709Z,8.40
2023-04-18T15:56:51.127Z,8.07
2023-04-18T15:59:18.124Z,5.45
2023-04-18T16:01:46.182Z,6.80
2023-04-18T16:04:13.624Z,4.70
2023-04-18T16:06:40.968Z,6.10
2023-04-18T16:09:08.175Z,10.65
2023-04-18T16:11:35.248Z,7.30
2023-04-18T16:14:02.233Z,7.13
2023-04-18T16:16:29.520Z,4.32
2023-04-18T16:18:56.632Z,10.88
2023-04-18T16:21:23.683Z,10.15
2023-04-18T16:23:50.746Z,10.25
2023-04-18T16:26:17.849Z,11.35
2023-04-18T16:28:44.853Z,6.50
2023-04-18T16:31:13.991Z,8.90
2023-04-18T16:33:41.210Z,6.80
2023-04-18T16:36:09.236Z,7.88
2023-04-18T16:38:36.317Z,9.05
2023-04-18T16:41:03.760Z,10.23
2023-04-18T16:43:31.165Z,6.43
2023-04-18T16:46:00.313Z,6.60
2023-04-18T16:48:28.999Z,7.38
2023-04-18T16:50:56.667Z,13.15
2023-04-18T16:53:24.811Z,12.63
2023-04-18T16:55:53.109Z,8.52
2023-04-18T16:58:21.642Z,5.40
2023-04-18T17:00:48.661Z,7.82
2023-04-18T17:03:15.930Z,7.88
2023-04-18T17:05:43.011Z,6.90
2023-04-18T17:08:10.049Z,7.53
2023-04-18T17:10:37.036Z,7.07
2023-04-18T17:13:04.306Z,10.52
2023-04-18T17:15:31.378Z,10.65
2023-04-18T17:18:00.392Z,9.95
2023-04-18T17:20:28.374Z,6.15
2023-04-18T17:22:55.693Z,9.18
2023-04-18T17:25:22.693Z,6.43
2023-04-18T17:27:49.684Z,7.68
2023-04-18T17:30:16.838Z,7.15
2023-04-18T17:32:46.108Z,9.38
2023-04-18T17:35:14.741Z,10.88
2023-04-18T17:37:45.348Z,11.80
2023-04-18T17:40:13.154Z,12.07
2023-04-18T17:42:40.514Z,12.48
2023-04-18T17:45:09.561Z,11.60
2023-04-18T17:47:36.958Z,9.50
2023-04-18T17:50:05.194Z,8.88
2023-04-18T17:52:32.614Z,7.72
2023-04-18T17:55:01.648Z,12.73
2023-04-18T17:57:30.522Z,8.02
2023-04-18T17:59:57.604Z,7.72
2023-04-18T18:02:24.877Z,10.35
2023-04-18T18:04:51.994Z,6.85
2023-04-18T18:07:18.951Z,9.40
2023-04-18T18:09:46.068Z,6.18
2023-04-18T18:12:13.605Z,11.52
2023-04-18T18:14:40.597Z,9.73
2023-04-18T18:17:07.766Z,7.38
2023-04-18T18:19:38.918Z,5.65
2023-04-18T18:22:06.299Z,9.73
2023-04-18T18:24:33.324Z,8.98
2023-04-18T18:27:00.508Z,7.57
2023-04-18T18:29:27.581Z,6.85
2023-04-18T18:31:54.840Z,7.25
2023-04-18T18:34:22.075Z,11.00
2023-04-18T18:36:49.272Z,9.43
2023-04-18T18:39:16.683Z,11.13
2023-04-18T18:41:43.916Z,7.70
2023-04-18T18:44:11.851Z,8.20
2023-04-18T18:46:38.952Z,8.43
2023-04-18T18:49:05.968Z,8.10
2023-04-18T18:51:33.086Z,8.85
2023-04-18T18:54:00.151Z,9.57
2023-04-18T18:56:27.250Z,9.23
2023-04-18T18:58:57.428Z,7.28
2023-04-18T19:01:24.641Z,7.55
2023-04-18T19:03:51.819Z,23.42
2023-04-18T19:06:18.843Z,12.23
2023-04-18T19:08:45.891Z,11.82
2023-04-18T19:11:12.920Z,7.78
2023-04-18T19:13:40.021Z,12.55
2023-04-18T19:16:07.361Z,11.13
2023-04-18T19:18:34.455Z,14.43
2023-04-18T19:21:02.541Z,8.93
2023-04-18T19:23:30.964Z,8.52
2023-04-18T19:25:58.234Z,11.77
2023-04-18T19:28:25.874Z,13.48
2023-04-18T19:30:53.191Z,16.88
2023-04-18T19:33:21.252Z,13.10
2023-04-18T19:35:48.279Z,8.35
2023-04-18T19:38:15.412Z,12.35
2023-04-18T19:40:42.674Z,11.50
2023-04-18T19:43:09.745Z,10.38
2023-04-18T19:45:36.821Z,12.25
2023-04-18T19:48:04.147Z,8.70
2023-04-18T19:50:31.196Z,9.88
2023-04-18T19:52:58.204Z,14.07
2023-04-18T19:55:25.361Z,12.57
2023-04-18T19:57:56.796Z,15.25
2023-04-18T20:00:23.945Z,11.30
2023-04-18T20:02:51.194Z,8.48
2023-04-18T20:05:18.673Z,12.15
2023-04-18T20:07:45.903Z,9.27
2023-04-18T20:10:12.961Z,9.80
2023-04-18T20:12:40.280Z,11.30
2023-04-18T20:15:08.349Z,16.02
2023-04-18T20:17:35.464Z,14.15
2023-04-18T20:20:02.868Z,9.75
2023-04-18T20:22:29.923Z,10.18
2023-04-18T20:24:57.372Z,8.13
2023-04-18T20:27:24.425Z,10.77
2023-04-18T20:29:51.600Z,8.30
2023-04-18T20:32:18.587Z,8.32
2023-04-18T20:34:46.709Z,10.60
2023-04-18T20:37:15.988Z,10.50
2023-04-18T20:39:43.019Z,9.60
2023-04-18T20:42:14.172Z,11.27
2023-04-18T20:44:47.023Z,9.40
2023-04-18T20:47:15.823Z,10.15
2023-04-18T20:49:43.134Z,10.10
2023-04-18T20:52:10.361Z,9.80
2023-04-18T20:54:37.374Z,13.63
2023-04-18T20:57:04.527Z,14.57
2023-04-18T20:59:31.574Z,8.63
2023-04-18T21:01:58.665Z,14.18
2023-04-18T21:04:26.629Z,8.57
2023-04-18T21:06:53.879Z,12.73
2023-04-18T21:09:20.875Z,11.15
2023-04-18T21:11:47.988Z,10.95
2023-04-18T21:14:17.125Z,12.68
2023-04-18T21:16:44.373Z,10.15
2023-04-18T21:19:11.805Z,9.68
2023-04-18T21:21:38.815Z,8.85
2023-04-18T21:24:06.149Z,12.02
2023-04-18T21:26:33.276Z,12.77
2023-04-18T21:29:02.593Z,10.30
2023-04-18T21:31:31.764Z,13.48
2023-04-18T21:34:01.568Z,13.48
2023-04-18T21:36:30.994Z,8.48
2023-04-18T21:39:01.040Z,10.88
2023-04-18T21:41:28.520Z,11.20
2023-04-18T21:43:55.721Z,10.90
2023-04-18T21:46:22.860Z,9.40
2023-04-18T21:48:49.974Z,9.07
2023-04-18T21:51:17.499Z,10.05
2023-04-18T21:53:44.771Z,9.07
2023-04-18T21:56:11.971Z,7.50
2023-04-18T21:58:39.047Z,9.88
2023-04-18T22:01:06.311Z,10.90
2023-04-18T22:03:34.357Z,6.78
2023-04-18T22:06:02.016Z,9.57
2023-04-18T22:08:29.556Z,10.20
2023-04-18T22:10:59.004Z,7.35
2023-04-18T22:13:33.137Z,7.63
2023-04-18T22:16:04.843Z,10.77
2023-04-18T22:18:34.062Z,9.18
2023-04-18T22:21:03.373Z,9.75
2023-04-18T22:23:31.133Z,7.90
2023-04-18T22:25:58.336Z,9.02
2023-04-18T22:28:27.820Z,12.30
2023-04-18T22:30:54.971Z,9.98
2023-04-18T22:33:22.069Z,7.97
2023-04-18T22:35:49.194Z,7.10
2023-04-18T22:38:16.398Z,11.70
2023-04-18T22:40:43.442Z,7.53
2023-04-18T22:43:10.414Z,8.30
2023-04-18T22:45:37.403Z,6.68
2023-04-18T22:48:04.938Z,10.50
2023-04-18T22:50:32.003Z,7.28
2023-04-18T22:52:58.981Z,8.25
2023-04-18T22:55:25.952Z,8.43
2023-04-18T22:57:52.968Z,8.98
2023-04-18T23:00:20.118Z,9.77
2023-04-18T23:02:47.199Z,9.75
2023-04-18T23:05:16.115Z,8.88
2023-04-18T23:07:43.129Z,7.88
2023-04-18T23:10:10.926Z,22.95
2023-04-18T23:12:37.909Z,13.45
2023-04-18T23:15:05.531Z,12.77
2023-04-18T23:17:34.920Z,8.98
2023-04-18T23:20:02.034Z,8.18
2023-04-18T23:22:29.571Z,12.75
2023-04-18T23:24:56.558Z,9.48
2023-04-18T23:27:23.589Z,8.23
2023-04-18T23:29:50.763Z,8.40
2023-04-18T23:32:17.808Z,12.68
2023-04-18T23:34:46.043Z,7.68
2023-04-18T23:37:12.998Z,8.15
2023-04-18T23:39:40.040Z,9.15
2023-04-18T23:42:07.145Z,12.23
2023-04-18T23:44:34.266Z,7.63
2023-04-18T23:47:01.320Z,7.30
2023-04-18T23:49:28.523Z,9.23
2023-04-18T23:51:55.516Z,6.75
2023-04-18T23:54:22.563Z,7.00
2023-04-18T23:56:49.764Z,8.55
2023-04-18T23:59:16.754Z,5.87
